Woofie — WDE6895 — position and weather

sailwx.info

Track history (hours):
 
Tides and Currents Weather Stations Pressure Air Temp Water Temp Dewpoint Dewpoint Depression Visibility Wind Speed Wind Dir Waves Ship Positions

Woofie

Owner: Montgomery, Mark L, Charleston, SC. More information available from US FCC via Universal Licensing System and Coast Guard Vessel Documentation Center.

Last reported at 2017-Dec-10 23:28 UTC. Time now 2017-Dec-14 10:18 UTC.
Position N 37°52' W 122°27'.

Length 14 m.

Type: Sailing vessel. MMSI: 367386310.

Date/timePositionNaut miles runAvg speedWind from/ knotsBaromVisibWave heightAir tempDewpointWater temp
2017-Dec-10 23:28N 37°52' W 122°27'3 1.4
2017-Dec-10 21:30N 37°49' W 122°26'1 2.8
2017-Dec-10 21:00N 37°49' W 122°27'2 3.0
2017-Dec-10 20:24N 37°49' W 122°30'0 1.0
2017-Dec-10 19:54N 37°49' W 122°30'2 4.5
2017-Dec-10 19:29N 37°49' W 122°28'  
2017-Dec-02 15:33N 37°51' W 122°27'0 6.4
2017-Dec-02 15:30N 37°51' W 122°27'0 0.0
2017-Dec-02 01:18N 37°51' W 122°27'4 3.6
2017-Dec-02 00:18N 37°50' W 122°23'1 1.9
2017-Dec-01 23:55N 37°51' W 122°22'1 3.0
2017-Dec-01 23:29N 37°49' W 122°21'2 3.7
2017-Dec-01 23:00N 37°48' W 122°22'1 0.9
2017-Dec-01 21:35N 37°47' W 122°23'1 3.3
2017-Dec-01 21:26N 37°47' W 122°23'1 2.4
2017-Dec-01 21:00N 37°48' W 122°24'2 2.7
2017-Dec-01 20:25N 37°49' W 122°26'1 2.3
2017-Dec-01 20:00N 37°49' W 122°27'  
Track history (hours):
 
Tides and Currents Weather Stations Pressure Air Temp Water Temp Dewpoint Dewpoint Depression Visibility Wind Speed Wind Dir Waves Ship Positions

Woofie

Owner: Montgomery, Mark L, Charleston, SC. More information available from US FCC via Universal Licensing System and Coast Guard Vessel Documentation Center.

Last reported at 2017-Dec-10 23:28 UTC. Time now 2017-Dec-14 10:18 UTC.
Position N 37°52' W 122°27'.

Length 14 m.

Type: Sailing vessel. MMSI: 367386310.

Date/timePositionNaut miles runAvg speedWind from/ knotsBaromVisibWave heightAir tempDewpointWater temp
2017-Dec-10 23:28N 37°52' W 122°27'3 1.4
2017-Dec-10 21:30N 37°49' W 122°26'1 2.8
2017-Dec-10 21:00N 37°49' W 122°27'2 3.0
2017-Dec-10 20:24N 37°49' W 122°30'0 1.0
2017-Dec-10 19:54N 37°49' W 122°30'2 4.5
2017-Dec-10 19:29N 37°49' W 122°28'  
2017-Dec-02 15:33N 37°51' W 122°27'0 6.4
2017-Dec-02 15:30N 37°51' W 122°27'0 0.0
2017-Dec-02 01:18N 37°51' W 122°27'4 3.6
2017-Dec-02 00:18N 37°50' W 122°23'1 1.9
2017-Dec-01 23:55N 37°51' W 122°22'1 3.0
2017-Dec-01 23:29N 37°49' W 122°21'2 3.7
2017-Dec-01 23:00N 37°48' W 122°22'1 0.9
2017-Dec-01 21:35N 37°47' W 122°23'1 3.3
2017-Dec-01 21:26N 37°47' W 122°23'1 2.4
2017-Dec-01 21:00N 37°48' W 122°24'2 2.7
2017-Dec-01 20:25N 37°49' W 122°26'1 2.3
2017-Dec-01 20:00N 37°49' W 122°27'  

Dump ship's entire track history